Time;durP1;ratioP1;P1;durP2;ratioP2;P2;SDS_P1;SDS_P2;PMS_P1;PMS_P2;Temp;Humidity;BMP_temperature;BMP_pressure;BME280_temperature;BME280_humidity;BME280_pressure;Samples;Min_cycle;Max_cycle;Signal;HPM_P1;HPM_P2
2022/09/06 00:01:34;;;;;;;60.07;4.10;;;;;;;;;;5074725;28;20449;-65
2022/09/06 00:04:03;;;;;;;59.17;3.87;;;;;;;;;;5074820;28;20478;-65
2022/09/06 00:06:30;;;;;;;59.57;4.53;;;;;;;;;;5074818;28;20453;-65
2022/09/06 00:08:57;;;;;;;59.80;3.63;;;;;;;;;;5074273;28;20735;-65
2022/09/06 00:11:24;;;;;;;59.60;4.30;;;;;;;;;;5074540;28;20484;-65
2022/09/06 00:13:51;;;;;;;60.77;4.27;;;;;;;;;;5074358;28;20485;-65
2022/09/06 00:16:19;;;;;;;59.60;3.93;;;;;;;;;;5074749;28;20447;-65
2022/09/06 00:18:46;;;;;;;59.50;4.10;;;;;;;;;;5074366;28;20472;-65
2022/09/06 00:21:16;;;;;;;59.60;4.00;;;;;;;;;;5074352;28;20461;-65
2022/09/06 00:23:43;;;;;;;59.40;3.70;;;;;;;;;;5074423;28;20474;-65
2022/09/06 00:26:11;;;;;;;59.77;3.73;;;;;;;;;;5074175;28;20460;-65
2022/09/06 00:28:38;;;;;;;59.10;3.70;;;;;;;;;;5073799;28;20473;-65
2022/09/06 00:31:09;;;;;;;59.37;4.10;;;;;;;;;;5074105;28;20493;-65
2022/09/06 00:33:36;;;;;;;59.80;3.97;;;;;;;;;;5073420;28;20485;-65
2022/09/06 00:36:03;;;;;;;59.70;4.30;;;;;;;;;;5074241;28;20462;-65
2022/09/06 00:38:32;;;;;;;61.90;5.23;;;;;;;;;;5073911;28;20447;-65
2022/09/06 00:40:59;;;;;;;59.50;4.00;;;;;;;;;;5074062;28;20448;-65
2022/09/06 00:43:26;;;;;;;60.40;4.23;;;;;;;;;;5073887;28;20796;-65
2022/09/06 00:45:53;;;;;;;59.47;4.00;;;;;;;;;;5074237;28;20809;-65
2022/09/06 00:48:22;;;;;;;61.10;4.10;;;;;;;;;;5073916;28;20446;-65
2022/09/06 00:50:50;;;;;;;59.30;4.03;;;;;;;;;;5073626;28;20479;-65
2022/09/06 00:53:18;;;;;;;59.70;3.90;;;;;;;;;;5073815;28;20477;-65
2022/09/06 00:55:47;;;;;;;59.90;4.57;;;;;;;;;;5073681;28;20827;-65
2022/09/06 00:58:15;;;;;;;63.93;4.00;;;;;;;;;;5073541;28;20528;-65
2022/09/06 01:00:43;;;;;;;62.73;4.80;;;;;;;;;;5073535;28;20443;-65
2022/09/06 01:03:11;;;;;;;59.17;3.73;;;;;;;;;;5073806;28;20553;-65
2022/09/06 01:05:43;;;;;;;60.80;4.40;;;;;;;;;;5073556;28;20956;-65
2022/09/06 01:08:15;;;;;;;62.63;4.53;;;;;;;;;;5073368;28;20438;-65
2022/09/06 01:11:02;;;;;;;61.10;4.07;;;;;;;;;;5073295;28;20576;-65
2022/09/06 01:13:34;;;;;;;60.50;4.87;;;;;;;;;;5073485;28;20479;-65
2022/09/06 01:16:08;;;;;;;59.17;3.90;;;;;;;;;;5073471;28;20549;-65
2022/09/06 01:18:43;;;;;;;60.00;3.77;;;;;;;;;;5072875;28;20455;-65
2022/09/06 01:21:25;;;;;;;59.90;3.67;;;;;;;;;;5073649;28;20793;-65
2022/09/06 01:24:08;;;;;;;60.60;4.60;;;;;;;;;;5073069;28;21009;-65
2022/09/06 01:26:54;;;;;;;59.70;4.13;;;;;;;;;;5073157;28;20457;-65
2022/09/06 01:29:27;;;;;;;59.30;3.70;;;;;;;;;;5073022;28;20454;-65
2022/09/06 01:31:57;;;;;;;60.00;4.53;;;;;;;;;;5073291;28;20486;-65
2022/09/06 01:34:27;;;;;;;60.27;4.43;;;;;;;;;;5072886;28;20481;-65
2022/09/06 01:36:56;;;;;;;59.20;3.43;;;;;;;;;;5072858;28;20458;-65
2022/09/06 01:39:24;;;;;;;59.50;4.13;;;;;;;;;;5072465;28;20449;-65
2022/09/06 01:41:52;;;;;;;59.47;4.10;;;;;;;;;;5073007;28;20978;-65
2022/09/06 01:44:19;;;;;;;60.80;4.17;;;;;;;;;;5072281;28;20831;-65
2022/09/06 01:46:52;;;;;;;58.77;3.50;;;;;;;;;;5070621;28;20449;-65
2022/09/06 01:49:24;;;;;;;60.47;4.87;;;;;;;;;;5072320;28;20458;-65
2022/09/06 01:51:57;;;;;;;59.60;3.63;;;;;;;;;;5072853;28;20868;-65
2022/09/06 01:54:34;;;;;;;62.30;4.87;;;;;;;;;;5072665;28;20836;-65
2022/09/06 01:57:09;;;;;;;60.50;4.37;;;;;;;;;;5072648;28;20450;-65
2022/09/06 01:59:42;;;;;;;59.27;4.20;;;;;;;;;;5072165;28;20457;-65
2022/09/06 02:02:13;;;;;;;59.57;3.77;;;;;;;;;;5072430;28;20953;-65
2022/09/06 02:04:44;;;;;;;60.87;3.90;;;;;;;;;;5072540;28;20459;-65
2022/09/06 02:07:15;;;;;;;60.10;3.80;;;;;;;;;;5072452;28;20450;-65
2022/09/06 02:09:44;;;;;;;59.30;3.60;;;;;;;;;;5072149;28;20456;-65
2022/09/06 02:12:13;;;;;;;60.17;3.93;;;;;;;;;;5072069;28;20478;-65
2022/09/06 02:14:41;;;;;;;59.20;4.13;;;;;;;;;;5072376;28;20450;-65
2022/09/06 02:17:09;;;;;;;60.23;4.67;;;;;;;;;;5072437;28;20939;-65
2022/09/06 02:19:40;;;;;;;60.23;3.80;;;;;;;;;;5071957;28;20452;-65
2022/09/06 02:22:10;;;;;;;59.80;4.10;;;;;;;;;;5072179;28;20470;-65
2022/09/06 02:24:39;;;;;;;60.77;4.10;;;;;;;;;;5072041;28;20454;-65
2022/09/06 02:27:06;;;;;;;59.20;3.40;;;;;;;;;;5072278;28;20845;-65
2022/09/06 02:29:34;;;;;;;60.00;4.10;;;;;;;;;;5071965;28;20450;-65
2022/09/06 02:32:04;;;;;;;62.63;4.50;;;;;;;;;;5072113;28;20883;-65
2022/09/06 02:34:31;;;;;;;59.67;4.20;;;;;;;;;;5071886;28;20474;-65
2022/09/06 02:37:00;;;;;;;59.53;4.20;;;;;;;;;;5071830;28;20458;-65
2022/09/06 02:39:27;;;;;;;59.70;4.40;;;;;;;;;;5071399;28;20452;-65
2022/09/06 02:41:55;;;;;;;63.30;4.10;;;;;;;;;;5072089;28;20452;-65
2022/09/06 02:44:22;;;;;;;59.77;4.70;;;;;;;;;;5071765;28;20473;-65
2022/09/06 02:46:49;;;;;;;59.90;3.80;;;;;;;;;;5071796;28;20446;-65
2022/09/06 02:49:16;;;;;;;59.70;3.90;;;;;;;;;;5071494;28;20451;-65
2022/09/06 02:51:43;;;;;;;59.77;3.90;;;;;;;;;;5071317;28;20753;-65
2022/09/06 02:54:12;;;;;;;60.30;4.53;;;;;;;;;;5071539;28;20475;-65
2022/09/06 02:56:39;;;;;;;59.87;3.70;;;;;;;;;;5071585;28;20452;-65
2022/09/06 02:59:06;;;;;;;59.00;3.83;;;;;;;;;;5071359;28;20456;-65
2022/09/06 03:01:34;;;;;;;62.00;4.53;;;;;;;;;;5071599;28;20443;-65
2022/09/06 03:04:01;;;;;;;59.90;4.30;;;;;;;;;;5071530;28;20481;-65
2022/09/06 03:06:28;;;;;;;62.50;5.37;;;;;;;;;;5071451;28;20820;-65
2022/09/06 03:08:55;;;;;;;59.20;4.30;;;;;;;;;;5071246;28;20457;-66
2022/09/06 03:11:24;;;;;;;66.40;4.33;;;;;;;;;;5071623;28;20849;-65
2022/09/06 03:13:51;;;;;;;65.63;5.37;;;;;;;;;;5071369;28;20467;-65
2022/09/06 03:16:19;;;;;;;60.03;4.10;;;;;;;;;;5071527;28;20450;-66
2022/09/06 03:18:46;;;;;;;60.20;4.77;;;;;;;;;;5070999;28;20453;-65
2022/09/06 03:21:14;;;;;;;60.10;4.70;;;;;;;;;;5071348;28;20456;-65
2022/09/06 03:23:41;;;;;;;59.93;4.10;;;;;;;;;;5071760;28;20463;-65
2022/09/06 03:26:09;;;;;;;61.47;4.63;;;;;;;;;;5071322;28;20481;-65
2022/09/06 03:28:37;;;;;;;60.87;4.70;;;;;;;;;;5070939;28;20822;-65
2022/09/06 03:31:05;;;;;;;59.60;3.87;;;;;;;;;;5071340;28;20508;-65
2022/09/06 03:33:32;;;;;;;59.57;4.00;;;;;;;;;;5071150;28;20982;-65
2022/09/06 03:36:00;;;;;;;60.20;4.67;;;;;;;;;;5071210;28;20458;-65
2022/09/06 03:38:28;;;;;;;60.77;3.97;;;;;;;;;;5071480;28;20821;-65
2022/09/06 03:40:55;;;;;;;59.73;3.90;;;;;;;;;;5071218;28;20977;-65
2022/09/06 03:43:23;;;;;;;60.53;4.60;;;;;;;;;;5071203;28;20471;-65
2022/09/06 03:45:52;;;;;;;60.13;4.00;;;;;;;;;;5071159;28;20451;-65
2022/09/06 03:48:20;;;;;;;63.57;4.73;;;;;;;;;;5071306;28;20458;-65
2022/09/06 03:50:48;;;;;;;60.63;5.23;;;;;;;;;;5071133;28;20556;-65
2022/09/06 03:53:16;;;;;;;59.77;3.77;;;;;;;;;;5070928;28;21032;-65
2022/09/06 03:55:44;;;;;;;62.97;5.27;;;;;;;;;;5071025;28;20458;-65
2022/09/06 03:58:12;;;;;;;61.10;5.30;;;;;;;;;;5071052;28;20459;-65
2022/09/06 04:00:39;;;;;;;60.00;4.17;;;;;;;;;;5070947;28;20454;-65
2022/09/06 04:03:07;;;;;;;62.57;4.70;;;;;;;;;;5070886;28;21073;-65
2022/09/06 04:05:34;;;;;;;60.27;4.60;;;;;;;;;;5071186;28;20463;-65
2022/09/06 04:08:02;;;;;;;61.60;4.20;;;;;;;;;;5071678;28;20805;-65
2022/09/06 04:10:29;;;;;;;60.60;4.80;;;;;;;;;;5074363;28;20533;-65
2022/09/06 04:12:56;;;;;;;59.90;4.40;;;;;;;;;;5074233;28;20483;-65
2022/09/06 04:15:23;;;;;;;60.20;4.10;;;;;;;;;;5074361;28;20453;-65
2022/09/06 04:17:50;;;;;;;61.43;5.40;;;;;;;;;;5074527;28;20447;-65
2022/09/06 04:20:19;;;;;;;60.60;4.90;;;;;;;;;;5073872;28;20462;-65
2022/09/06 04:22:46;;;;;;;60.80;4.53;;;;;;;;;;5074649;28;20471;-65
2022/09/06 04:25:13;;;;;;;60.90;4.60;;;;;;;;;;5074589;28;20454;-65
2022/09/06 04:27:40;;;;;;;60.30;4.63;;;;;;;;;;5074277;28;20459;-65
2022/09/06 04:30:08;;;;;;;59.97;4.13;;;;;;;;;;5073413;28;20451;-65
2022/09/06 04:32:35;;;;;;;61.07;4.80;;;;;;;;;;5074158;28;20495;-65
2022/09/06 04:35:02;;;;;;;61.00;4.20;;;;;;;;;;5074053;28;20462;-65
2022/09/06 04:37:31;;;;;;;60.07;4.77;;;;;;;;;;5074247;28;20943;-65
2022/09/06 04:39:58;;;;;;;61.07;5.70;;;;;;;;;;5073594;28;20443;-65
2022/09/06 04:42:25;;;;;;;61.40;4.70;;;;;;;;;;5074017;28;20471;-65
2022/09/06 04:44:52;;;;;;;59.80;4.03;;;;;;;;;;5074132;28;20443;-65
2022/09/06 04:47:19;;;;;;;60.93;4.80;;;;;;;;;;5073879;28;20825;-65
2022/09/06 04:49:48;;;;;;;60.37;4.50;;;;;;;;;;5073456;28;20952;-65
2022/09/06 04:52:15;;;;;;;60.07;4.70;;;;;;;;;;5073813;28;20543;-65
2022/09/06 04:54:44;;;;;;;59.77;4.20;;;;;;;;;;5062149;28;21009;-65
2022/09/06 04:57:11;;;;;;;60.10;4.40;;;;;;;;;;5057685;28;20448;-65
2022/09/06 04:59:38;;;;;;;61.07;4.73;;;;;;;;;;5073259;28;20537;-65
2022/09/06 05:02:05;;;;;;;60.57;4.77;;;;;;;;;;5067132;28;20451;-65
2022/09/06 05:04:32;;;;;;;63.57;4.97;;;;;;;;;;5053498;28;20468;-65
2022/09/06 05:07:00;;;;;;;60.27;4.77;;;;;;;;;;5055559;28;20478;-65
2022/09/06 05:09:28;;;;;;;60.87;5.30;;;;;;;;;;5065405;28;20447;-65
2022/09/06 05:11:56;;;;;;;60.10;4.00;;;;;;;;;;5053199;28;20486;-65
2022/09/06 05:14:23;;;;;;;60.47;5.13;;;;;;;;;;5053207;28;20467;-65
2022/09/06 05:16:51;;;;;;;61.00;5.40;;;;;;;;;;5069104;28;20540;-65
2022/09/06 05:19:18;;;;;;;60.43;4.83;;;;;;;;;;5061034;28;20512;-65
2022/09/06 05:21:46;;;;;;;61.77;5.23;;;;;;;;;;5061457;28;20455;-65
2022/09/06 05:24:13;;;;;;;61.13;4.90;;;;;;;;;;5054227;28;20554;-65
2022/09/06 05:26:40;;;;;;;60.27;4.47;;;;;;;;;;5053417;28;20452;-65
2022/09/06 05:29:08;;;;;;;60.17;4.90;;;;;;;;;;5052707;28;20452;-65
2022/09/06 05:31:36;;;;;;;61.30;5.40;;;;;;;;;;5053030;28;20547;-65
2022/09/06 05:34:03;;;;;;;61.03;5.40;;;;;;;;;;5052860;28;20474;-65
2022/09/06 05:36:31;;;;;;;60.27;4.77;;;;;;;;;;5052661;28;20482;-65
2022/09/06 05:38:58;;;;;;;61.70;5.03;;;;;;;;;;5052909;28;20436;-65
2022/09/06 05:41:25;;;;;;;60.37;4.80;;;;;;;;;;5052938;28;20547;-65
2022/09/06 05:43:52;;;;;;;61.90;4.73;;;;;;;;;;5052836;28;20487;-65
2022/09/06 05:46:21;;;;;;;63.63;5.60;;;;;;;;;;5052470;28;20443;-65
2022/09/06 05:48:56;;;;;;;60.47;4.70;;;;;;;;;;5052237;28;20458;-65
2022/09/06 05:51:24;;;;;;;61.00;4.83;;;;;;;;;;5052837;28;20879;-65
2022/09/06 05:53:51;;;;;;;60.83;5.17;;;;;;;;;;5052543;28;20491;-65
2022/09/06 05:56:18;;;;;;;60.83;4.60;;;;;;;;;;5052498;28;20456;-65
2022/09/06 05:58:45;;;;;;;61.27;5.50;;;;;;;;;;5052229;28;20863;-65
2022/09/06 06:01:17;;;;;;;60.37;5.10;;;;;;;;;;5052600;28;20450;-65
2022/09/06 06:03:50;;;;;;;61.00;4.67;;;;;;;;;;5052510;28;20464;-65
2022/09/06 06:06:17;;;;;;;59.93;4.43;;;;;;;;;;5052480;28;20452;-65
2022/09/06 06:08:44;;;;;;;59.80;4.87;;;;;;;;;;5052009;28;20440;-65
2022/09/06 06:11:12;;;;;;;64.03;5.00;;;;;;;;;;5052408;28;20452;-65
2022/09/06 06:13:39;;;;;;;60.70;4.53;;;;;;;;;;5052143;28;20488;-65
2022/09/06 06:16:06;;;;;;;60.83;5.00;;;;;;;;;;5052100;28;20452;-65
2022/09/06 06:18:33;;;;;;;60.13;4.50;;;;;;;;;;5051915;28;20450;-65
2022/09/06 06:21:09;;;;;;;60.60;5.90;;;;;;;;;;5052252;28;20450;-65
2022/09/06 06:23:36;;;;;;;61.10;4.70;;;;;;;;;;5052078;28;21052;-65
2022/09/06 06:26:03;;;;;;;60.93;4.80;;;;;;;;;;5052057;28;20947;-65
2022/09/06 06:28:31;;;;;;;70.53;5.50;;;;;;;;;;5051719;28;20444;-65
2022/09/06 06:30:58;;;;;;;61.53;4.47;;;;;;;;;;5051411;28;20452;-65
2022/09/06 06:33:25;;;;;;;61.00;4.60;;;;;;;;;;5052042;28;20494;-65
2022/09/06 06:35:59;;;;;;;59.97;4.50;;;;;;;;;;5052020;28;20857;-65
2022/09/06 06:38:31;;;;;;;60.30;5.17;;;;;;;;;;5051711;28;20448;-65
2022/09/06 06:40:58;;;;;;;61.27;5.80;;;;;;;;;;5051728;28;20814;-65
2022/09/06 06:43:26;;;;;;;60.20;4.83;;;;;;;;;;5051864;28;20555;-66
2022/09/06 06:45:53;;;;;;;60.37;4.90;;;;;;;;;;5051887;28;20448;-66
2022/09/06 06:48:20;;;;;;;59.77;4.30;;;;;;;;;;5052056;28;20456;-66
2022/09/06 06:50:47;;;;;;;60.13;4.87;;;;;;;;;;5051485;28;20454;-66
2022/09/06 06:53:14;;;;;;;61.53;5.00;;;;;;;;;;5051594;28;20953;-66
2022/09/06 06:55:47;;;;;;;60.67;4.10;;;;;;;;;;5051652;28;20456;-66
2022/09/06 06:58:15;;;;;;;62.37;5.10;;;;;;;;;;5051713;28;20452;-66
2022/09/06 07:00:42;;;;;;;61.10;5.07;;;;;;;;;;5051124;28;20459;-66
2022/09/06 07:03:09;;;;;;;60.27;4.27;;;;;;;;;;5050946;28;21019;-66
2022/09/06 07:05:36;;;;;;;60.37;5.00;;;;;;;;;;5051277;28;20470;-66
2022/09/06 07:08:04;;;;;;;60.07;4.23;;;;;;;;;;5051392;28;20444;-66
2022/09/06 07:10:31;;;;;;;60.17;4.20;;;;;;;;;;5050926;28;20448;-66
2022/09/06 07:13:00;;;;;;;59.73;3.93;;;;;;;;;;5051540;28;20492;-66
2022/09/06 07:15:27;;;;;;;60.40;4.17;;;;;;;;;;5051533;28;20474;-66
2022/09/06 07:17:55;;;;;;;61.20;4.83;;;;;;;;;;5051523;28;20444;-66
2022/09/06 07:20:24;;;;;;;59.77;4.23;;;;;;;;;;5050351;28;20453;-66
2022/09/06 07:22:59;;;;;;;59.67;4.50;;;;;;;;;;5051248;28;20468;-66
2022/09/06 07:25:26;;;;;;;59.77;4.40;;;;;;;;;;5051329;28;20448;-66
2022/09/06 07:27:57;;;;;;;59.27;4.40;;;;;;;;;;5051293;28;20454;-66
2022/09/06 07:30:26;;;;;;;61.93;4.67;;;;;;;;;;5050362;28;20452;-66
2022/09/06 07:32:53;;;;;;;59.50;4.20;;;;;;;;;;5051112;28;20575;-66
2022/09/06 07:35:20;;;;;;;60.50;4.10;;;;;;;;;;5051618;28;20475;-66
2022/09/06 07:37:53;;;;;;;59.60;3.80;;;;;;;;;;5051422;28;20448;-66
2022/09/06 07:40:21;;;;;;;59.17;3.67;;;;;;;;;;5050870;28;20454;-66
2022/09/06 07:42:48;;;;;;;59.27;3.67;;;;;;;;;;5052644;28;20463;-66
2022/09/06 07:45:15;;;;;;;61.30;4.30;;;;;;;;;;5055041;28;20458;-66
2022/09/06 07:47:44;;;;;;;60.20;4.60;;;;;;;;;;5054944;28;20493;-66
2022/09/06 07:50:11;;;;;;;59.17;4.00;;;;;;;;;;5054933;28;20538;-66
2022/09/06 07:52:38;;;;;;;60.50;4.30;;;;;;;;;;5054974;28;20474;-66
2022/09/06 07:55:06;;;;;;;60.67;3.80;;;;;;;;;;5054979;28;20451;-66
2022/09/06 07:57:33;;;;;;;59.97;4.17;;;;;;;;;;5054917;28;20463;-66
2022/09/06 08:00:00;;;;;;;58.97;3.60;;;;;;;;;;5054331;28;20444;-66
2022/09/06 08:02:27;;;;;;;59.33;3.63;;;;;;;;;;5054914;28;20450;-66
2022/09/06 08:04:56;;;;;;;58.97;3.63;;;;;;;;;;5054962;28;20454;-66
2022/09/06 08:07:24;;;;;;;59.33;3.73;;;;;;;;;;5054834;28;20815;-65
2022/09/06 08:09:51;;;;;;;59.03;3.87;;;;;;;;;;5054416;28;20452;-66
2022/09/06 08:12:18;;;;;;;58.37;3.17;;;;;;;;;;5054421;28;20463;-66
2022/09/06 08:14:45;;;;;;;59.10;3.60;;;;;;;;;;5054070;28;20484;-63
2022/09/06 08:17:13;;;;;;;59.30;4.00;;;;;;;;;;5054450;28;20440;-63
2022/09/06 08:19:40;;;;;;;60.10;3.87;;;;;;;;;;5054276;28;20444;-63
2022/09/06 08:22:08;;;;;;;59.70;4.17;;;;;;;;;;5054116;28;20456;-63
2022/09/06 08:24:35;;;;;;;59.90;4.17;;;;;;;;;;5054340;28;20472;-63
2022/09/06 08:27:06;;;;;;;59.10;3.43;;;;;;;;;;5054366;28;20626;-63
2022/09/06 08:29:33;;;;;;;59.00;3.10;;;;;;;;;;5053872;28;20959;-63
2022/09/06 08:32:00;;;;;;;59.33;3.93;;;;;;;;;;5054468;28;20475;-63
2022/09/06 08:34:27;;;;;;;59.10;3.70;;;;;;;;;;5054099;28;20496;-63
2022/09/06 08:36:55;;;;;;;59.50;4.40;;;;;;;;;;5054194;28;20882;-63
2022/09/06 08:39:23;;;;;;;59.37;3.83;;;;;;;;;;5053866;28;20538;-63
2022/09/06 08:41:53;;;;;;;59.47;3.53;;;;;;;;;;5053930;28;20452;-63
2022/09/06 08:44:22;;;;;;;59.23;3.40;;;;;;;;;;5054131;28;20464;-63
2022/09/06 08:46:53;;;;;;;58.47;3.57;;;;;;;;;;5053958;28;20440;-63
2022/09/06 08:49:21;;;;;;;59.37;3.57;;;;;;;;;;5053722;28;20455;-64
2022/09/06 08:52:03;;;;;;;58.73;3.20;;;;;;;;;;5053920;28;20456;-63
2022/09/06 08:54:36;;;;;;;58.77;3.23;;;;;;;;;;5040802;28;20991;-63
2022/09/06 08:57:05;;;;;;;59.10;3.60;;;;;;;;;;5054075;28;20458;-63
2022/09/06 08:59:35;;;;;;;58.87;3.30;;;;;;;;;;5053472;28;20874;-63
2022/09/06 09:02:06;;;;;;;58.17;3.13;;;;;;;;;;5054222;28;20449;-64
2022/09/06 09:04:34;;;;;;;59.30;3.80;;;;;;;;;;5053574;28;20468;-63
2022/09/06 09:07:04;;;;;;;60.90;3.17;;;;;;;;;;5053624;28;20530;-63
2022/09/06 09:09:34;;;;;;;61.47;3.57;;;;;;;;;;5053684;28;20760;-64
2022/09/06 09:12:01;;;;;;;58.47;3.30;;;;;;;;;;5053577;28;20450;-63
2022/09/06 09:14:34;;;;;;;58.43;3.13;;;;;;;;;;5064326;28;20491;-64
2022/09/06 09:17:03;;;;;;;58.70;3.20;;;;;;;;;;5073330;28;20538;-63
2022/09/06 09:19:35;;;;;;;58.40;3.37;;;;;;;;;;5073317;28;20489;-64
2022/09/06 09:22:02;;;;;;;59.37;3.80;;;;;;;;;;5073188;28;20550;-64
2022/09/06 09:24:31;;;;;;;62.00;3.83;;;;;;;;;;5073191;28;20467;-64
2022/09/06 09:27:03;;;;;;;59.13;3.50;;;;;;;;;;5069989;28;20462;-64
2022/09/06 09:29:30;;;;;;;60.70;3.20;;;;;;;;;;5072035;28;20453;-64
2022/09/06 09:31:57;;;;;;;58.57;2.90;;;;;;;;;;5072175;28;20451;-65
2022/09/06 09:34:32;;;;;;;60.30;3.03;;;;;;;;;;5072260;28;20498;-64
2022/09/06 09:37:12;;;;;;;59.73;3.10;;;;;;;;;;5072431;28;20520;-64
2022/09/06 09:39:39;;;;;;;59.67;3.20;;;;;;;;;;5071919;28;20451;-64
2022/09/06 09:42:09;;;;;;;59.37;3.20;;;;;;;;;;5072254;28;20611;-64
2022/09/06 09:44:36;;;;;;;58.00;2.80;;;;;;;;;;5072153;28;20467;-66
2022/09/06 09:47:10;;;;;;;57.97;2.77;;;;;;;;;;5072238;28;20447;-64
2022/09/06 09:49:37;;;;;;;58.90;3.30;;;;;;;;;;5071928;28;20456;-65
2022/09/06 09:52:06;;;;;;;58.30;2.73;;;;;;;;;;5072043;28;20465;-64
2022/09/06 09:54:35;;;;;;;62.87;3.50;;;;;;;;;;5071943;28;20494;-64
2022/09/06 09:57:07;;;;;;;62.40;3.30;;;;;;;;;;5072439;28;20451;-64
2022/09/06 09:59:40;;;;;;;58.00;2.50;;;;;;;;;;5069761;28;20457;-64
2022/09/06 10:02:17;;;;;;;58.03;2.83;;;;;;;;;;5072030;28;20447;-64
2022/09/06 10:04:45;;;;;;;57.80;2.70;;;;;;;;;;5071899;28;20453;-64
2022/09/06 10:07:14;;;;;;;57.90;2.80;;;;;;;;;;5070599;28;20596;-64
2022/09/06 10:09:42;;;;;;;57.70;2.40;;;;;;;;;;5071543;28;20530;-64
2022/09/06 10:12:14;;;;;;;64.20;2.97;;;;;;;;;;5072268;28;20451;-64
2022/09/06 10:14:43;;;;;;;58.27;4.40;;;;;;;;;;5071674;28;20483;-65
2022/09/06 10:17:18;;;;;;;57.67;2.83;;;;;;;;;;5071782;28;20447;-65
2022/09/06 10:19:46;;;;;;;57.40;2.60;;;;;;;;;;5071560;28;20446;-65
2022/09/06 10:22:28;;;;;;;58.27;2.50;;;;;;;;;;5072068;28;20546;-65
2022/09/06 10:25:04;;;;;;;57.50;3.10;;;;;;;;;;5069653;28;20448;-65
2022/09/06 10:27:32;;;;;;;56.77;2.53;;;;;;;;;;5071714;28;20469;-65
2022/09/06 10:30:02;;;;;;;56.90;2.60;;;;;;;;;;5069002;28;20821;-65
2022/09/06 10:32:34;;;;;;;57.27;2.63;;;;;;;;;;5071647;28;20439;-65
2022/09/06 10:35:09;;;;;;;57.60;2.83;;;;;;;;;;5071777;28;20493;-65
2022/09/06 10:37:48;;;;;;;57.53;2.77;;;;;;;;;;5071900;28;20443;-65
2022/09/06 10:40:20;;;;;;;57.17;2.70;;;;;;;;;;5071491;28;20490;-65
2022/09/06 10:42:47;;;;;;;57.07;2.43;;;;;;;;;;5071272;28;20482;-65
2022/09/06 10:45:28;;;;;;;57.30;2.80;;;;;;;;;;5071407;28;20458;-65
2022/09/06 10:47:56;;;;;;;57.37;2.83;;;;;;;;;;5071050;28;21018;-65
2022/09/06 10:50:26;;;;;;;59.50;2.73;;;;;;;;;;5070914;28;20474;-65
2022/09/06 10:52:54;;;;;;;59.30;3.03;;;;;;;;;;5071281;28;20999;-64
2022/09/06 10:55:21;;;;;;;58.57;2.60;;;;;;;;;;5071670;28;20487;-64
2022/09/06 10:57:49;;;;;;;57.57;2.70;;;;;;;;;;5071776;28;20830;-64
2022/09/06 11:00:17;;;;;;;57.67;2.80;;;;;;;;;;5070912;28;20930;-65
2022/09/06 11:02:47;;;;;;;57.63;2.67;;;;;;;;;;5068743;28;21075;-64
2022/09/06 11:05:19;;;;;;;57.40;2.50;;;;;;;;;;5071018;28;20475;-64
2022/09/06 11:07:47;;;;;;;57.27;2.10;;;;;;;;;;5070535;28;20995;-65
2022/09/06 11:10:18;;;;;;;57.70;2.73;;;;;;;;;;5070978;28;20481;-65
2022/09/06 11:12:49;;;;;;;57.87;2.53;;;;;;;;;;5070896;28;20471;-64
2022/09/06 11:15:17;;;;;;;57.97;2.40;;;;;;;;;;5071288;28;20494;-65
2022/09/06 11:17:47;;;;;;;57.70;2.47;;;;;;;;;;5072939;28;20444;-65
2022/09/06 11:20:18;;;;;;;57.40;2.17;;;;;;;;;;5074922;28;20451;-65
2022/09/06 11:22:59;;;;;;;60.17;2.47;;;;;;;;;;5075432;28;20478;-64
2022/09/06 11:25:42;;;;;;;57.70;2.30;;;;;;;;;;5074932;28;20455;-65
2022/09/06 11:28:12;;;;;;;59.57;2.40;;;;;;;;;;5075301;28;20459;-65
2022/09/06 11:30:43;;;;;;;57.97;2.30;;;;;;;;;;5074670;28;20454;-64
2022/09/06 11:33:13;;;;;;;58.00;2.97;;;;;;;;;;5075285;28;20482;-65
2022/09/06 11:35:43;;;;;;;58.37;2.67;;;;;;;;;;5072573;28;20487;-64
2022/09/06 11:38:19;;;;;;;58.40;2.80;;;;;;;;;;5075068;28;20459;-64
2022/09/06 11:40:47;;;;;;;58.00;2.10;;;;;;;;;;5074756;28;20981;-64
2022/09/06 11:43:16;;;;;;;57.87;2.70;;;;;;;;;;5074818;28;20634;-65
2022/09/06 11:45:45;;;;;;;57.77;2.53;;;;;;;;;;5074437;28;20989;-65
2022/09/06 11:48:33;;;;;;;57.47;2.50;;;;;;;;;;5074214;28;20553;-64
2022/09/06 11:51:05;;;;;;;58.83;2.87;;;;;;;;;;5074805;28;20454;-65
2022/09/06 11:53:33;;;;;;;58.23;2.67;;;;;;;;;;5074409;28;20543;-65
2022/09/06 11:56:17;;;;;;;58.20;2.30;;;;;;;;;;5074817;28;20506;-64
2022/09/06 11:58:48;;;;;;;58.90;2.40;;;;;;;;;;5074530;28;20461;-65
2022/09/06 12:01:34;;;;;;;58.97;2.77;;;;;;;;;;5074707;28;20455;-64
2022/09/06 12:04:02;;;;;;;57.77;2.43;;;;;;;;;;5074250;28;20836;-65
2022/09/06 12:06:33;;;;;;;57.77;2.93;;;;;;;;;;5071354;28;20971;-64
2022/09/06 12:09:00;;;;;;;57.60;2.27;;;;;;;;;;5073732;28;20493;-65
2022/09/06 12:11:35;;;;;;;57.73;2.30;;;;;;;;;;5074228;28;20458;-65
2022/09/06 12:14:03;;;;;;;60.13;2.83;;;;;;;;;;5074290;28;20471;-65
2022/09/06 12:16:49;;;;;;;57.97;2.87;;;;;;;;;;5074255;28;20859;-65
2022/09/06 12:19:31;;;;;;;60.40;2.90;;;;;;;;;;5074270;28;20454;-65
2022/09/06 12:21:59;;;;;;;58.97;2.50;;;;;;;;;;5074122;28;20454;-64
2022/09/06 12:24:44;;;;;;;58.20;3.00;;;;;;;;;;5073886;28;20466;-64
2022/09/06 12:27:14;;;;;;;62.70;3.00;;;;;;;;;;5063897;28;20818;-65
2022/09/06 12:29:48;;;;;;;58.00;2.70;;;;;;;;;;5072323;28;20447;-64
2022/09/06 12:32:20;;;;;;;58.10;2.83;;;;;;;;;;5073923;28;20550;-64
2022/09/06 12:34:47;;;;;;;58.40;2.90;;;;;;;;;;5073975;28;20501;-64
2022/09/06 12:37:16;;;;;;;58.20;2.90;;;;;;;;;;5073860;28;20466;-65
2022/09/06 12:39:57;;;;;;;57.80;2.60;;;;;;;;;;5071101;28;20448;-64
2022/09/06 12:42:24;;;;;;;57.90;2.50;;;;;;;;;;5073959;28;20450;-64
2022/09/06 12:44:53;;;;;;;58.83;3.17;;;;;;;;;;5073717;28;20944;-64
2022/09/06 12:47:23;;;;;;;59.13;3.30;;;;;;;;;;5073531;28;20447;-64
2022/09/06 12:50:06;;;;;;;58.07;2.80;;;;;;;;;;5072688;28;20453;-64
2022/09/06 12:52:35;;;;;;;58.77;3.23;;;;;;;;;;5073848;28;20467;-64
2022/09/06 12:55:02;;;;;;;59.10;3.67;;;;;;;;;;5073406;28;20487;-65
2022/09/06 12:57:29;;;;;;;58.17;3.00;;;;;;;;;;5073638;28;20804;-65
2022/09/06 12:59:57;;;;;;;58.30;2.93;;;;;;;;;;5073205;28;20451;-64
2022/09/06 13:02:27;;;;;;;58.23;3.00;;;;;;;;;;5073274;28;20454;-64
2022/09/06 13:04:57;;;;;;;66.03;4.00;;;;;;;;;;5073498;28;20444;-64
2022/09/06 13:07:25;;;;;;;59.63;3.40;;;;;;;;;;5073324;28;20831;-64
2022/09/06 13:09:56;;;;;;;61.07;3.30;;;;;;;;;;5073025;28;20553;-64
2022/09/06 13:12:32;;;;;;;58.20;2.87;;;;;;;;;;5070740;28;20462;-64
2022/09/06 13:15:02;;;;;;;60.77;3.63;;;;;;;;;;5073095;28;20486;-64
2022/09/06 13:17:31;;;;;;;59.40;3.60;;;;;;;;;;5073314;28;20940;-64
2022/09/06 13:19:58;;;;;;;58.90;4.03;;;;;;;;;;5072984;28;20871;-64
2022/09/06 13:22:39;;;;;;;59.27;3.17;;;;;;;;;;5073001;28;20542;-64
2022/09/06 13:25:13;;;;;;;58.73;3.17;;;;;;;;;;5072875;28;20447;-64
2022/09/06 13:27:44;;;;;;;59.07;3.27;;;;;;;;;;5072798;28;20454;-64
2022/09/06 13:30:29;;;;;;;58.17;2.70;;;;;;;;;;5072165;28;20557;-64
2022/09/06 13:32:56;;;;;;;58.60;2.93;;;;;;;;;;5072940;28;20471;-64
2022/09/06 13:35:24;;;;;;;58.97;3.10;;;;;;;;;;5072511;28;20495;-64
2022/09/06 13:37:51;;;;;;;59.33;2.80;;;;;;;;;;5072657;28;20459;-64
2022/09/06 13:40:41;;;;;;;59.17;3.23;;;;;;;;;;5072450;28;20447;-64
2022/09/06 13:43:10;;;;;;;58.10;3.00;;;;;;;;;;5070317;28;20460;-65
2022/09/06 13:45:38;;;;;;;58.10;2.83;;;;;;;;;;5052447;28;20483;-64
2022/09/06 13:48:05;;;;;;;57.97;2.50;;;;;;;;;;5052022;28;20742;-64
2022/09/06 13:50:33;;;;;;;58.80;2.73;;;;;;;;;;5051966;28;20795;-64
2022/09/06 13:53:00;;;;;;;58.50;3.23;;;;;;;;;;5052252;28;20468;-64
2022/09/06 13:55:31;;;;;;;62.00;3.50;;;;;;;;;;5052292;28;20507;-64
2022/09/06 13:57:59;;;;;;;58.20;2.97;;;;;;;;;;5052642;28;20448;-64
2022/09/06 14:00:26;;;;;;;58.67;3.40;;;;;;;;;;5052000;28;20448;-64
2022/09/06 14:02:54;;;;;;;61.80;2.90;;;;;;;;;;5052572;28;20905;-64
2022/09/06 14:05:21;;;;;;;59.57;3.10;;;;;;;;;;5051529;28;20456;-64
2022/09/06 14:07:48;;;;;;;60.20;3.37;;;;;;;;;;5052008;28;20455;-65
2022/09/06 14:10:17;;;;;;;58.50;3.00;;;;;;;;;;5051261;28;20451;-64
2022/09/06 14:12:45;;;;;;;59.40;3.00;;;;;;;;;;5051886;28;20468;-64
2022/09/06 14:15:13;;;;;;;58.97;3.20;;;;;;;;;;5052942;28;20702;-64
2022/09/06 14:17:40;;;;;;;58.67;3.00;;;;;;;;;;5072121;28;20490;-64
2022/09/06 14:20:08;;;;;;;59.10;3.33;;;;;;;;;;5071573;28;20522;-64
2022/09/06 14:22:35;;;;;;;59.10;3.53;;;;;;;;;;5071864;28;20998;-64
2022/09/06 14:25:02;;;;;;;59.03;3.43;;;;;;;;;;5071707;28;21036;-64
2022/09/06 14:27:30;;;;;;;60.27;3.70;;;;;;;;;;5071060;28;20452;-64
2022/09/06 14:29:57;;;;;;;58.20;2.70;;;;;;;;;;5070620;28;20704;-65
2022/09/06 14:32:26;;;;;;;58.10;3.30;;;;;;;;;;5071497;28;20880;-64
2022/09/06 14:34:53;;;;;;;58.50;3.00;;;;;;;;;;5071625;28;20479;-64
2022/09/06 14:37:21;;;;;;;60.90;4.13;;;;;;;;;;5072068;28;20455;-65
2022/09/06 14:39:48;;;;;;;60.60;3.70;;;;;;;;;;5071336;28;20455;-64
2022/09/06 14:42:15;;;;;;;60.07;4.20;;;;;;;;;;5070924;28;20466;-64
2022/09/06 14:44:42;;;;;;;58.43;3.20;;;;;;;;;;5071948;28;20447;-63